Time;durP1;ratioP1;P1;durP2;ratioP2;P2;SDS_P1;SDS_P2;PMS_P1;PMS_P2;Temp;Humidity;BMP_temperature;BMP_pressure;BME280_temperature;BME280_humidity;BME280_pressure;Samples;Min_cycle;Max_cycle;Signal;HPM_P1;HPM_P2
2020/12/08 00:01:21;;;;;;;21.12;7.53;;;;;;;-9.86;74.73;102278.78;1735741;82;20996;-33
2020/12/08 00:03:49;;;;;;;17.00;6.97;;;;;;;-9.85;74.75;102269.27;1735909;81;21197;-33
2020/12/08 00:06:16;;;;;;;20.05;7.33;;;;;;;-9.81;74.67;102257.91;1735819;82;21039;-32
2020/12/08 00:08:44;;;;;;;12.60;5.80;;;;;;;-9.84;74.83;102275.18;1735901;82;21003;-34
2020/12/08 00:11:16;;;;;;;14.80;6.78;;;;;;;-9.81;74.63;102256.66;1735853;82;21174;-34
2020/12/08 00:13:45;;;;;;;18.35;6.85;;;;;;;-9.81;74.58;102263.80;1735877;82;20964;-32
2020/12/08 00:16:13;;;;;;;19.75;7.42;;;;;;;-9.83;74.56;102266.92;1735865;82;21343;-33
2020/12/08 00:18:40;;;;;;;12.15;6.62;;;;;;;-9.83;74.80;102253.13;1735872;82;20944;-33
2020/12/08 00:21:08;;;;;;;16.45;6.80;;;;;;;-9.83;74.63;102265.28;1735826;82;20924;-35
2020/12/08 00:23:36;;;;;;;11.57;5.90;;;;;;;-9.81;74.79;102265.05;1735918;81;21499;-33
2020/12/08 00:26:03;;;;;;;10.53;5.17;;;;;;;-9.77;74.67;102269.09;1735911;82;20976;-33
2020/12/08 00:28:34;;;;;;;23.60;6.60;;;;;;;-9.75;74.23;102261.34;1735959;82;21391;-33
2020/12/08 00:31:01;;;;;;;14.28;5.87;;;;;;;-9.78;74.79;102273.59;1735720;82;20908;-34
2020/12/08 00:33:29;;;;;;;16.62;6.95;;;;;;;-9.75;74.33;102262.59;1735874;82;20999;-33
2020/12/08 00:35:58;;;;;;;20.82;7.53;;;;;;;-9.75;74.48;102267.25;1735861;82;20944;-33
2020/12/08 00:38:27;;;;;;;23.30;7.95;;;;;;;-9.73;74.44;102275.80;1735839;82;20920;-34
2020/12/08 00:40:54;;;;;;;14.30;6.72;;;;;;;-9.75;74.52;102274.77;1735825;82;21146;-33
2020/12/08 00:43:23;;;;;;;13.48;6.45;;;;;;;-9.75;74.59;102266.35;1735902;82;21173;-32
2020/12/08 00:45:51;;;;;;;11.50;6.35;;;;;;;-9.76;74.64;102263.34;1735921;82;20948;-34
2020/12/08 00:48:18;;;;;;;15.35;6.33;;;;;;;-9.73;74.64;102253.59;1735784;81;20976;-33
2020/12/08 00:50:47;;;;;;;15.72;7.20;;;;;;;-9.74;74.71;102233.02;1735899;82;21411;-32
2020/12/08 00:53:14;;;;;;;17.75;6.75;;;;;;;-9.77;74.81;102243.67;1735882;82;21208;-35
2020/12/08 00:55:43;;;;;;;18.00;6.53;;;;;;;-9.75;74.86;102260.09;1735808;82;21074;-32
2020/12/08 00:58:11;;;;;;;14.10;7.53;;;;;;;-9.76;74.86;102245.43;1735845;82;20932;-34
2020/12/08 01:00:40;;;;;;;17.30;8.03;;;;;;;-9.73;74.65;102251.98;1735753;82;21006;-33
2020/12/08 01:03:08;;;;;;;13.15;7.08;;;;;;;-9.78;74.94;102241.91;1735882;82;20908;-32
2020/12/08 01:05:36;;;;;;;18.15;8.08;;;;;;;-9.71;74.68;102226.67;1735876;82;21401;-34
2020/12/08 01:08:05;;;;;;;21.77;7.17;;;;;;;-9.76;74.94;102233.25;1735817;82;21494;-32
2020/12/08 01:10:33;;;;;;;18.40;8.60;;;;;;;-9.76;75.08;102226.98;1714897;82;21003;-33
2020/12/08 01:13:01;;;;;;;17.45;7.60;;;;;;;-9.76;75.35;102239.16;1735814;82;20940;-33
2020/12/08 01:15:29;;;;;;;18.62;7.78;;;;;;;-9.76;75.50;102210.33;1715149;82;20928;-32
2020/12/08 01:17:57;;;;;;;20.30;7.53;;;;;;;-9.73;75.21;102229.41;1735740;82;21373;-33
2020/12/08 01:20:25;;;;;;;21.02;8.63;;;;;;;-9.70;75.62;102226.32;1735885;82;21003;-33
2020/12/08 01:22:54;;;;;;;22.30;9.15;;;;;;;-9.67;75.58;102254.18;1735764;82;20991;-34
2020/12/08 01:25:22;;;;;;;18.10;8.43;;;;;;;-9.68;75.64;102211.91;1735780;82;21011;-33
2020/12/08 01:27:50;;;;;;;18.02;8.20;;;;;;;-9.68;75.75;102253.67;1735807;82;20972;-32
2020/12/08 01:30:18;;;;;;;19.17;8.38;;;;;;;-9.66;75.77;102259.70;1738322;82;22369;-32
2020/12/08 01:32:48;;;;;;;19.23;7.70;;;;;;;-9.69;75.97;102251.91;1749746;82;21007;-32
2020/12/08 01:35:18;;;;;;;21.55;8.73;;;;;;;-9.64;76.06;102218.45;1749802;82;21007;-34
2020/12/08 01:37:47;;;;;;;25.43;9.48;;;;;;;-9.63;76.18;102244.05;1749783;82;20928;-33
2020/12/08 01:40:15;;;;;;;18.10;8.73;;;;;;;-9.65;76.31;102252.70;1749863;82;21054;-33
2020/12/08 01:42:43;;;;;;;22.77;8.25;;;;;;;-9.62;76.18;102245.80;1722306;82;22477;-33
2020/12/08 01:45:11;;;;;;;21.75;8.93;;;;;;;-9.65;76.39;102241.41;1749918;82;21536;-33
2020/12/08 01:47:41;;;;;;;18.50;8.25;;;;;;;-9.57;76.01;102230.45;1749830;82;20891;-32
2020/12/08 01:50:10;;;;;;;16.37;7.95;;;;;;;-9.63;76.00;102235.27;1723032;82;20999;-34
2020/12/08 01:52:38;;;;;;;17.25;7.85;;;;;;;-9.63;76.00;102228.64;1749939;81;20904;-32
2020/12/08 01:55:08;;;;;;;24.95;8.93;;;;;;;-9.59;75.99;102214.38;1749801;82;21195;-33
2020/12/08 01:57:39;;;;;;;17.52;7.90;;;;;;;-9.62;76.05;102224.14;1700187;82;20924;-33
2020/12/08 02:00:09;;;;;;;32.42;8.60;;;;;;;-9.60;75.72;102225.16;1749758;82;20876;-34
2020/12/08 02:02:44;;;;;;;20.57;8.58;;;;;;;-9.62;76.01;102226.64;1749804;82;20983;-34
2020/12/08 02:05:23;;;;;;;26.52;8.18;;;;;;;-9.60;75.87;102207.60;1748656;82;20983;-35
2020/12/08 02:07:51;;;;;;;20.27;7.30;;;;;;;-9.62;75.97;102225.39;1722309;82;21565;-34
2020/12/08 02:10:19;;;;;;;27.80;9.10;;;;;;;-9.63;76.03;102229.89;1749701;82;20951;-34
2020/12/08 02:12:48;;;;;;;23.22;8.83;;;;;;;-9.57;75.47;102202.86;1749782;82;20987;-32
2020/12/08 02:15:16;;;;;;;25.97;9.18;;;;;;;-9.59;75.70;102210.63;1749889;81;21514;-33
2020/12/08 02:17:45;;;;;;;21.40;8.70;;;;;;;-9.60;75.59;102216.37;1750028;82;21066;-35
2020/12/08 02:20:14;;;;;;;16.20;6.97;;;;;;;-9.60;75.71;102219.24;1749935;82;21372;-33
2020/12/08 02:22:43;;;;;;;19.92;8.48;;;;;;;-9.57;75.05;102204.50;1749846;82;21026;-33
2020/12/08 02:25:11;;;;;;;17.17;8.38;;;;;;;-9.61;75.18;102218.38;1722523;82;20975;-34
2020/12/08 02:27:39;;;;;;;21.57;8.13;;;;;;;-9.61;75.27;102220.89;1750026;82;20939;-34
2020/12/08 02:30:09;;;;;;;18.23;8.18;;;;;;;-9.63;75.60;102221.47;1749970;82;20928;-34
2020/12/08 02:32:37;;;;;;;20.23;8.30;;;;;;;-9.60;75.37;102225.16;1736365;82;21329;-33
2020/12/08 02:35:07;;;;;;;18.67;8.73;;;;;;;-9.60;75.32;102216.37;1735851;82;20979;-32
2020/12/08 02:37:35;;;;;;;17.10;6.75;;;;;;;-9.60;75.20;102218.89;1735956;82;21003;-34
2020/12/08 02:40:05;;;;;;;16.65;7.67;;;;;;;-9.61;75.34;102218.38;1735884;82;21051;-34
2020/12/08 02:42:33;;;;;;;25.20;8.95;;;;;;;-9.67;75.60;102213.67;1736038;82;20975;-34
2020/12/08 02:45:01;;;;;;;17.87;8.53;;;;;;;-9.67;75.62;102226.59;1715056;82;21475;-34
2020/12/08 02:47:30;;;;;;;19.75;9.23;;;;;;;-9.64;75.67;102221.86;1735802;82;20932;-33
2020/12/08 02:49:59;;;;;;;19.50;8.38;;;;;;;-9.63;75.86;102222.73;1715063;82;20991;-33
2020/12/08 02:52:28;;;;;;;26.62;9.75;;;;;;;-9.57;75.77;102218.30;1735972;82;20880;-34
2020/12/08 02:54:55;;;;;;;24.85;8.48;;;;;;;-9.61;75.94;102212.47;1735932;82;20995;-33
2020/12/08 02:57:23;;;;;;;19.32;8.35;;;;;;;-9.68;76.21;102216.92;1736054;82;22235;-34
2020/12/08 02:59:51;;;;;;;26.02;9.75;;;;;;;-9.65;76.38;102205.41;1735859;82;21043;-33
2020/12/08 03:02:21;;;;;;;23.27;9.73;;;;;;;-9.61;76.30;102207.45;1735982;82;20908;-34
2020/12/08 03:04:50;;;;;;;27.30;9.95;;;;;;;-9.61;76.66;102205.84;1735929;82;20988;-32
2020/12/08 03:07:18;;;;;;;22.13;8.95;;;;;;;-9.62;76.66;102210.70;1735998;82;20975;-33
2020/12/08 03:09:46;;;;;;;24.80;9.08;;;;;;;-9.64;76.82;102207.17;1735927;82;21358;-33
2020/12/08 03:12:15;;;;;;;19.60;8.03;;;;;;;-9.64;76.87;102215.59;1735887;82;20971;-33
2020/12/08 03:14:44;;;;;;;25.70;9.95;;;;;;;-9.59;76.90;102206.86;1735905;82;21000;-34
2020/12/08 03:17:14;;;;;;;26.05;8.88;;;;;;;-9.60;77.06;102206.34;1735746;81;20987;-33
2020/12/08 03:19:44;;;;;;;26.17;9.85;;;;;;;-9.58;77.17;102211.12;1735865;81;20995;-33
2020/12/08 03:22:12;;;;;;;26.15;9.48;;;;;;;-9.62;77.27;102219.13;1735930;82;21192;-34
2020/12/08 03:24:41;;;;;;;19.42;8.50;;;;;;;-9.61;77.38;102220.89;1735571;82;20955;-34
2020/12/08 03:27:09;;;;;;;21.25;9.35;;;;;;;-9.63;77.64;102225.23;1735832;82;20991;-32
2020/12/08 03:29:38;;;;;;;23.85;9.53;;;;;;;-9.56;77.75;102207.52;1735856;82;21023;-33
2020/12/08 03:32:07;;;;;;;26.85;8.70;;;;;;;-9.56;77.96;102211.28;1744632;81;20984;-32
2020/12/08 03:34:36;;;;;;;23.18;10.43;;;;;;;-9.49;78.00;102196.40;1749889;82;21200;-33
2020/12/08 03:37:06;;;;;;;28.52;10.45;;;;;;;-9.45;77.87;102198.47;1749709;82;20995;-33
2020/12/08 03:39:34;;;;;;;28.50;9.83;;;;;;;-9.48;78.12;102200.67;1749993;82;21004;-34
2020/12/08 03:42:03;;;;;;;29.55;11.10;;;;;;;-9.48;78.29;102201.56;1749906;82;21066;-34
2020/12/08 03:44:32;;;;;;;24.75;10.10;;;;;;;-9.52;78.52;102204.16;1750016;82;21061;-36
2020/12/08 03:47:04;;;;;;;20.85;9.83;;;;;;;-9.48;78.65;102202.82;1749773;81;22670;-35
2020/12/08 03:49:33;;;;;;;25.95;10.30;;;;;;;-9.46;78.67;102198.83;1749901;82;21006;-33
2020/12/08 03:52:01;;;;;;;38.45;11.33;;;;;;;-9.47;78.75;102204.94;1749863;82;21062;-33
2020/12/08 03:54:29;;;;;;;30.85;11.40;;;;;;;-9.38;78.47;102203.29;1749899;82;21026;-35
2020/12/08 03:56:57;;;;;;;28.38;11.18;;;;;;;-9.37;78.63;102200.03;1749848;82;20931;-34
2020/12/08 03:59:26;;;;;;;25.72;10.72;;;;;;;-9.36;78.72;102202.16;1749922;82;21307;-32
2020/12/08 04:01:55;;;;;;;33.00;11.35;;;;;;;-9.41;78.84;102206.39;1748669;82;20979;-32
2020/12/08 04:04:25;;;;;;;32.35;11.50;;;;;;;-9.38;78.93;102200.39;1750002;82;21012;-33
2020/12/08 04:06:52;;;;;;;28.23;10.25;;;;;;;-9.34;79.08;102210.34;1749907;82;21569;-33
2020/12/08 04:09:21;;;;;;;30.35;10.23;;;;;;;-9.33;79.07;102178.63;1749869;82;20932;-34
2020/12/08 04:11:49;;;;;;;32.03;9.83;;;;;;;-9.32;78.92;102207.59;1749836;82;22824;-34
2020/12/08 04:14:17;;;;;;;23.90;9.90;;;;;;;-9.35;79.12;102197.29;1749840;82;20968;-34
2020/12/08 04:16:46;;;;;;;28.00;11.08;;;;;;;-9.34;79.28;102201.56;1749821;82;21034;-33
2020/12/08 04:19:16;;;;;;;28.73;10.80;;;;;;;-9.25;78.97;102196.11;1749949;82;20892;-33
2020/12/08 04:21:45;;;;;;;30.12;10.72;;;;;;;-9.24;78.83;102185.33;1749852;82;20975;-33
2020/12/08 04:24:24;;;;;;;26.60;10.50;;;;;;;-9.26;79.16;102186.81;1749013;82;21215;-35
2020/12/08 04:26:52;;;;;;;31.30;10.80;;;;;;;-9.23;79.17;102184.97;1749853;82;21300;-33
2020/12/08 04:29:23;;;;;;;32.17;10.18;;;;;;;-9.31;79.47;102188.03;1748776;82;20896;-33
2020/12/08 04:31:52;;;;;;;31.85;12.10;;;;;;;-9.27;79.31;102180.03;1744419;81;20928;-33
2020/12/08 04:34:19;;;;;;;29.30;11.97;;;;;;;-9.27;79.28;102194.22;1735969;82;21538;-32
2020/12/08 04:36:48;;;;;;;32.25;10.85;;;;;;;-9.27;79.36;102194.22;1735939;82;22219;-33
2020/12/08 04:39:16;;;;;;;24.02;10.68;;;;;;;-9.27;79.35;102178.78;1735839;82;21008;-34
2020/12/08 04:41:44;;;;;;;26.80;10.68;;;;;;;-9.27;79.11;102190.46;1735785;82;20991;-33
2020/12/08 04:44:11;;;;;;;37.93;11.08;;;;;;;-9.27;78.79;102186.70;1735846;82;21008;-34
2020/12/08 04:46:39;;;;;;;29.25;10.23;;;;;;;-9.32;78.74;102194.19;1735900;82;20876;-34
2020/12/08 04:49:07;;;;;;;32.25;11.57;;;;;;;-9.27;78.36;102188.81;1735860;82;21313;-35
2020/12/08 04:51:39;;;;;;;23.12;10.23;;;;;;;-9.28;78.42;102191.20;1735803;82;21007;-33
2020/12/08 04:54:06;;;;;;;36.45;11.08;;;;;;;-9.33;78.63;102187.02;1735857;82;20984;-33
2020/12/08 04:56:34;;;;;;;28.73;10.05;;;;;;;-9.28;78.55;102187.05;1735849;82;20960;-34
2020/12/08 04:59:02;;;;;;;31.68;11.30;;;;;;;-9.26;78.35;102168.00;1735796;82;20885;-33
2020/12/08 05:01:30;;;;;;;24.72;10.30;;;;;;;-9.30;78.42;102187.30;1735962;82;21327;-33
2020/12/08 05:04:01;;;;;;;26.75;9.43;;;;;;;-9.31;78.30;102162.95;1735763;82;20924;-33
2020/12/08 05:06:29;;;;;;;29.10;11.25;;;;;;;-9.27;77.96;102186.31;1735778;82;21043;-34
2020/12/08 05:09:04;;;;;;;32.33;10.28;;;;;;;-9.30;77.94;102160.95;1735830;82;21027;-33
2020/12/08 05:11:33;;;;;;;24.93;10.27;;;;;;;-9.35;77.88;102172.20;1735982;82;20984;-32
2020/12/08 05:14:05;;;;;;;32.33;9.88;;;;;;;-9.35;77.99;102189.77;1735776;82;21206;-33
2020/12/08 05:16:33;;;;;;;23.55;9.90;;;;;;;-9.35;78.09;102196.39;1735815;82;20991;-34
2020/12/08 05:19:06;;;;;;;23.67;10.60;;;;;;;-9.34;77.91;102208.22;1735808;82;21466;-33
2020/12/08 05:21:34;;;;;;;29.27;10.55;;;;;;;-9.32;77.69;102202.58;1735820;82;21016;-35
2020/12/08 05:24:02;;;;;;;28.15;11.25;;;;;;;-9.26;77.44;102184.70;1715061;82;21035;-33
2020/12/08 05:26:30;;;;;;;30.43;11.45;;;;;;;-9.31;77.59;102206.85;1735892;82;21940;-33
2020/12/08 05:29:00;;;;;;;28.05;9.88;;;;;;;-9.33;77.62;102209.59;1715386;82;20952;-33
2020/12/08 05:31:28;;;;;;;32.05;10.53;;;;;;;-9.31;77.72;102214.77;1736081;81;21016;-33
2020/12/08 05:33:59;;;;;;;36.30;11.35;;;;;;;-9.27;77.52;102219.31;1735856;81;20999;-34
2020/12/08 05:36:28;;;;;;;21.62;9.33;;;;;;;-9.22;77.45;102219.70;1735879;82;20967;-32
2020/12/08 05:39:00;;;;;;;28.23;10.53;;;;;;;-9.26;77.50;102215.67;1735758;82;21364;-35
2020/12/08 05:41:30;;;;;;;25.95;9.10;;;;;;;-9.22;77.25;102212.17;1735880;82;21114;-33
2020/12/08 05:44:04;;;;;;;27.45;10.70;;;;;;;-9.27;77.75;102214.30;1735925;82;21415;-35
2020/12/08 05:46:42;;;;;;;31.02;8.70;;;;;;;-9.18;77.62;102207.97;1735843;82;21011;-33
2020/12/08 05:49:14;;;;;;;38.13;10.50;;;;;;;-9.18;77.69;102198.80;1735822;82;20955;-33
2020/12/08 05:51:50;;;;;;;28.95;9.33;;;;;;;-9.17;77.82;102204.33;1735899;82;22074;-33
2020/12/08 05:54:20;;;;;;;30.80;9.78;;;;;;;-9.13;77.33;102189.19;1736019;82;20992;-33
2020/12/08 05:56:50;;;;;;;26.07;8.83;;;;;;;-9.16;77.12;102193.55;1736011;82;21000;-32
2020/12/08 05:59:28;;;;;;;20.65;8.88;;;;;;;-9.13;77.03;102196.71;1735972;82;20968;-32
2020/12/08 06:01:56;;;;;;;24.82;8.80;;;;;;;-9.13;76.91;102197.97;1736020;82;20939;-33
2020/12/08 06:04:25;;;;;;;27.07;10.30;;;;;;;-9.15;76.96;102200.72;1735946;82;21365;-32
2020/12/08 06:06:55;;;;;;;23.67;9.70;;;;;;;-9.13;76.92;102197.58;1735904;82;20983;-34
2020/12/08 06:09:26;;;;;;;29.23;9.43;;;;;;;-9.13;77.28;102201.34;1735964;82;21000;-35
2020/12/08 06:11:54;;;;;;;25.25;10.43;;;;;;;-9.05;77.01;102210.82;1735940;82;21534;-34
2020/12/08 06:14:36;;;;;;;22.02;9.45;;;;;;;-9.01;76.62;102196.92;1736002;82;20928;-34
2020/12/08 06:17:07;;;;;;;29.02;9.73;;;;;;;-9.06;76.87;102190.23;1736019;82;22279;-34
2020/12/08 06:19:35;;;;;;;20.68;9.08;;;;;;;-9.01;76.52;102195.28;1735870;82;20995;-34
2020/12/08 06:22:11;;;;;;;27.85;10.55;;;;;;;-9.05;76.47;102189.87;1735966;82;21549;-35
2020/12/08 06:24:52;;;;;;;27.60;9.63;;;;;;;-9.03;76.17;102196.77;1735965;82;20913;-34
2020/12/08 06:27:22;;;;;;;21.27;9.13;;;;;;;-9.04;75.57;102187.88;1735995;81;20924;-34
2020/12/08 06:29:54;;;;;;;18.57;8.68;;;;;;;-9.04;75.38;102187.48;1735930;82;21087;-34
2020/12/08 06:32:29;;;;;;;25.77;8.78;;;;;;;-9.06;75.39;102201.92;1736104;81;20948;-34
2020/12/08 06:35:13;;;;;;;33.05;9.55;;;;;;;-9.06;75.09;102191.88;1735960;82;21089;-34
2020/12/08 06:37:54;;;;;;;28.70;9.43;;;;;;;-9.09;75.14;102200.00;1735898;82;20932;-34
2020/12/08 06:40:23;;;;;;;26.65;10.23;;;;;;;-9.10;75.52;102178.16;1735909;82;20932;-34
2020/12/08 06:42:54;;;;;;;32.88;9.53;;;;;;;-9.08;75.04;102184.20;1735949;82;21371;-33
2020/12/08 06:45:24;;;;;;;31.00;11.18;;;;;;;-9.09;75.70;102201.26;1735946;82;20900;-34
2020/12/08 06:47:52;;;;;;;28.17;9.43;;;;;;;-9.06;75.88;102204.03;1735895;82;20944;-34
2020/12/08 06:50:31;;;;;;;28.60;10.45;;;;;;;-9.01;75.63;102172.69;1735793;82;21003;-33
2020/12/08 06:53:02;;;;;;;23.15;9.70;;;;;;;-9.03;75.46;102199.28;1735944;82;21182;-34
2020/12/08 06:55:30;;;;;;;26.25;10.23;;;;;;;-9.02;75.50;102199.80;1735981;82;21439;-33
2020/12/08 06:58:05;;;;;;;27.90;10.32;;;;;;;-8.95;75.58;102194.95;1715165;82;20972;-34
2020/12/08 07:00:33;;;;;;;20.82;8.55;;;;;;;-8.91;75.71;102198.23;1735969;81;21043;-34
2020/12/08 07:03:02;;;;;;;24.20;11.12;;;;;;;-8.90;75.53;102186.19;1735875;82;20945;-33
2020/12/08 07:05:32;;;;;;;23.55;9.48;;;;;;;-8.95;75.84;102194.59;1735975;82;20980;-34
2020/12/08 07:08:01;;;;;;;28.75;11.12;;;;;;;-8.84;75.54;102189.63;1735949;82;21168;-34
2020/12/08 07:10:29;;;;;;;24.82;9.33;;;;;;;-8.82;75.32;102184.36;1735808;82;20940;-32
2020/12/08 07:12:57;;;;;;;25.90;9.45;;;;;;;-8.86;75.58;102181.08;1735833;82;20995;-34
2020/12/08 07:15:26;;;;;;;32.00;9.90;;;;;;;-8.85;75.67;102186.61;1736022;82;21518;-34
2020/12/08 07:17:58;;;;;;;23.87;9.95;;;;;;;-8.84;75.79;102183.34;1735898;81;21004;-33
2020/12/08 07:20:27;;;;;;;29.65;10.25;;;;;;;-8.87;76.14;102184.34;1735893;82;21420;-34
2020/12/08 07:22:55;;;;;;;24.52;9.90;;;;;;;-8.77;76.17;102183.13;1735880;82;20975;-34
2020/12/08 07:25:23;;;;;;;24.10;10.98;;;;;;;-8.70;75.72;102178.28;1735901;82;20932;-33
2020/12/08 07:27:52;;;;;;;28.60;10.80;;;;;;;-8.70;75.81;102180.80;1735962;82;21035;-34
2020/12/08 07:30:23;;;;;;;18.12;7.62;;;;;;;-8.66;75.35;102182.46;1736002;82;21585;-34
2020/12/08 07:32:52;;;;;;;18.12;9.33;;;;;;;-8.64;75.57;102172.53;1666087;82;75926;-34
2020/12/08 07:35:23;;;;;;;19.82;8.53;;;;;;;-8.60;75.99;102183.73;1641650;86;21466;-32
2020/12/08 07:37:58;;;;;;;31.42;11.33;;;;;;;-8.53;75.89;102191.05;1639804;86;20939;-33
2020/12/08 07:40:38;;;;;;;21.45;10.13;;;;;;;-8.47;75.34;102190.67;1639895;86;21058;-34
2020/12/08 07:43:07;;;;;;;22.87;10.63;;;;;;;-8.50;75.47;102188.80;1639816;87;21122;-34
2020/12/08 07:45:43;;;;;;;27.82;10.85;;;;;;;-8.48;75.79;102190.17;1639803;87;21195;-33
2020/12/08 07:48:17;;;;;;;21.10;10.15;;;;;;;-8.44;75.91;102189.68;1639701;87;21023;-34
2020/12/08 07:50:44;;;;;;;31.10;11.00;;;;;;;-8.41;75.34;102187.07;1639761;87;21003;-33
2020/12/08 07:53:15;;;;;;;28.70;10.10;;;;;;;-8.40;75.58;102192.60;1639790;86;21003;-34
2020/12/08 07:55:44;;;;;;;28.83;9.35;;;;;;;-8.34;75.55;102205.18;1639807;87;20977;-35
2020/12/08 07:58:12;;;;;;;30.02;10.15;;;;;;;-8.33;75.78;102199.05;1639776;87;21234;-33
2020/12/08 08:00:40;;;;;;;30.48;10.15;;;;;;;-8.32;75.98;102188.24;1639807;87;20999;-33
2020/12/08 08:03:08;;;;;;;26.17;9.35;;;;;;;-8.19;75.47;102158.77;1639658;87;20944;-34
2020/12/08 08:05:36;;;;;;;29.52;11.12;;;;;;;-8.27;75.78;102189.87;1639785;86;21011;-34
2020/12/08 08:08:04;;;;;;;27.13;10.13;;;;;;;-8.19;75.66;102187.66;1639760;87;20991;-33
2020/12/08 08:10:32;;;;;;;26.42;10.13;;;;;;;-8.20;76.07;102187.16;1639799;86;22582;-35
2020/12/08 08:13:00;;;;;;;23.83;9.78;;;;;;;-8.11;75.98;102190.80;1639680;87;21586;-34
2020/12/08 08:15:29;;;;;;;28.77;10.60;;;;;;;-8.04;75.58;102183.42;1639801;86;20923;-34
2020/12/08 08:17:58;;;;;;;30.68;9.93;;;;;;;-8.00;75.20;102182.92;1639744;87;21031;-35
2020/12/08 08:20:26;;;;;;;31.07;10.50;;;;;;;-8.04;75.80;102183.42;1639791;86;21079;-34
2020/12/08 08:22:56;;;;;;;28.32;9.73;;;;;;;-8.01;75.53;102177.39;1632814;86;80024;-34
2020/12/08 08:25:24;;;;;;;32.35;10.45;;;;;;;-7.98;75.49;102181.41;1641221;87;21126;-34
2020/12/08 08:27:52;;;;;;;33.83;10.50;;;;;;;-7.96;75.45;102172.37;1639689;87;21088;-34
2020/12/08 08:30:20;;;;;;;34.10;10.72;;;;;;;-7.98;75.76;102178.91;1639846;87;21063;-34
2020/12/08 08:32:48;;;;;;;33.95;10.45;;;;;;;-7.91;75.57;102175.28;1638516;87;21015;-34
2020/12/08 08:35:16;;;;;;;31.02;10.32;;;;;;;-7.86;75.01;102169.89;1628325;88;21273;-34
2020/12/08 08:37:44;;;;;;;26.48;9.58;;;;;;;-7.83;74.83;102160.09;1628310;87;21079;-33
2020/12/08 08:40:12;;;;;;;27.05;10.05;;;;;;;-7.87;75.23;102165.98;1628384;88;21021;-35
2020/12/08 08:42:40;;;;;;;59.35;19.95;;;;;;;-7.80;75.07;102159.47;1628312;88;20913;-35
2020/12/08 08:45:08;;;;;;;43.98;17.45;;;;;;;-7.76;75.16;102141.73;1628423;87;20984;-33
2020/12/08 08:47:36;;;;;;;32.78;13.03;;;;;;;-7.81;75.23;102157.32;1628440;88;21222;-34
2020/12/08 08:50:04;;;;;;;36.68;10.85;;;;;;;-7.71;75.21;102151.78;1628299;87;21230;-34
2020/12/08 08:52:33;;;;;;;29.12;11.70;;;;;;;-7.67;74.98;102144.63;1628417;88;21456;-33
2020/12/08 08:55:00;;;;;;;37.90;12.18;;;;;;;-7.66;74.66;102148.05;1628372;88;20909;-32
2020/12/08 08:57:28;;;;;;;31.77;12.20;;;;;;;-7.61;74.90;102140.86;1628400;87;20966;-34
2020/12/08 08:59:56;;;;;;;26.17;11.00;;;;;;;-7.59;75.25;102141.86;1628436;88;22753;-32
2020/12/08 09:02:24;;;;;;;21.35;9.38;;;;;;;-7.51;75.12;102139.62;1628338;88;21186;-33
2020/12/08 09:04:53;;;;;;;34.48;11.22;;;;;;;-7.41;74.92;102132.45;1628455;88;21567;-35
2020/12/08 09:07:21;;;;;;;29.20;10.78;;;;;;;-7.36;74.98;102109.39;1628359;88;20966;-34
2020/12/08 09:09:49;;;;;;;33.10;10.93;;;;;;;-7.28;74.76;102120.48;1628342;88;21000;-34
2020/12/08 09:12:17;;;;;;;29.27;10.65;;;;;;;-7.22;74.80;102119.31;1628351;87;21370;-34
2020/12/08 09:14:47;;;;;;;34.27;11.65;;;;;;;-7.16;74.97;102125.63;1628411;88;21162;-33
2020/12/08 09:17:15;;;;;;;28.30;9.38;;;;;;;-7.03;74.56;102127.09;1628342;88;21084;-34
2020/12/08 09:19:43;;;;;;;23.35;9.23;;;;;;;-7.01;74.57;102131.02;1628445;87;21931;-35
2020/12/08 09:22:11;;;;;;;38.25;10.70;;;;;;;-6.96;74.25;102117.14;1628391;88;21072;-33
2020/12/08 09:24:39;;;;;;;29.45;10.70;;;;;;;-6.93;74.45;102117.38;1628369;88;21376;-34
2020/12/08 09:27:07;;;;;;;30.10;10.55;;;;;;;-6.93;74.29;102094.35;1628283;88;21036;-34
2020/12/08 09:29:35;;;;;;;25.92;11.08;;;;;;;-6.95;74.63;102124.80;1628352;88;21021;-33
2020/12/08 09:32:03;;;;;;;23.20;11.12;;;;;;;-6.85;74.32;102123.89;1628273;88;21583;-33
2020/12/08 09:34:31;;;;;;;32.78;11.88;;;;;;;-6.87;74.18;102126.67;1628311;87;20988;-33
2020/12/08 09:37:00;;;;;;;32.45;11.22;;;;;;;-6.93;74.53;102118.28;1628338;88;21220;-32
2020/12/08 09:39:29;;;;;;;33.15;10.00;;;;;;;-6.87;74.53;102112.82;1628270;88;20957;-33
2020/12/08 09:41:56;;;;;;;30.40;13.45;;;;;;;-6.80;74.40;102097.82;1628316;88;21033;-32
2020/12/08 09:44:25;;;;;;;28.73;10.35;;;;;;;-6.77;74.45;102100.97;1628473;88;21036;-34
2020/12/08 09:46:53;;;;;;;27.82;11.15;;;;;;;-6.79;74.47;102103.36;1628357;88;21096;-33
2020/12/08 09:50:16;;;;;;;30.95;10.35;;;;;;;-6.71;74.67;102103.57;1816161;79;22555;-35
2020/12/08 09:52:43;;;;;;;36.90;10.03;;;;;;;-6.66;74.31;102103.94;1789367;80;21501;-33
2020/12/08 09:55:11;;;;;;;27.55;10.90;;;;;;;-6.65;74.43;102110.38;1789250;80;21440;-33
2020/12/08 09:57:39;;;;;;;24.43;10.45;;;;;;;-6.54;74.26;102101.50;1789211;80;20939;-34
2020/12/08 10:00:07;;;;;;;23.87;10.18;;;;;;;-6.40;73.90;102083.66;1789188;80;21370;-33
2020/12/08 10:02:35;;;;;;;28.32;10.35;;;;;;;-6.37;74.00;102089.83;1789320;80;20989;-32
2020/12/08 10:05:03;;;;;;;41.68;10.70;;;;;;;-6.27;73.73;102096.82;1789303;80;20927;-34
2020/12/08 10:07:31;;;;;;;22.87;9.88;;;;;;;-6.15;73.50;102095.62;1789302;80;22143;-33
2020/12/08 10:10:00;;;;;;;19.70;8.10;;;;;;;-6.03;72.91;102091.52;1789171;80;21611;-33
2020/12/08 10:12:30;;;;;;;23.75;8.13;;;;;;;-5.89;72.29;102083.69;1789048;80;21370;-33
2020/12/08 10:14:58;;;;;;;29.10;10.80;;;;;;;-5.88;71.87;102075.36;1789182;80;21022;-32
2020/12/08 10:17:26;;;;;;;30.05;9.78;;;;;;;-5.85;72.17;102089.82;1789288;80;20922;-34
2020/12/08 10:19:54;;;;;;;24.12;9.80;;;;;;;-5.71;71.92;102079.12;1789169;80;22651;-33
2020/12/08 10:22:22;;;;;;;27.32;9.00;;;;;;;-5.52;71.20;102078.83;1789203;80;20931;-33
2020/12/08 10:24:50;;;;;;;28.20;9.05;;;;;;;-5.35;70.90;102075.00;1789220;80;20986;-34
2020/12/08 10:27:18;;;;;;;26.15;9.35;;;;;;;-5.31;70.03;102063.48;1789229;80;21007;-33
2020/12/08 10:29:46;;;;;;;19.40;9.08;;;;;;;-5.28;69.57;102059.05;1789151;80;20947;-34
2020/12/08 10:32:13;;;;;;;27.70;9.18;;;;;;;-5.22;70.05;102057.83;1789193;80;21425;-34
2020/12/08 10:34:41;;;;;;;24.82;8.18;;;;;;;-5.14;69.50;102063.43;1789153;80;20994;-33
2020/12/08 10:37:09;;;;;;;31.50;8.83;;;;;;;-4.94;69.04;102058.92;1789189;80;21038;-33
2020/12/08 10:39:38;;;;;;;26.57;8.38;;;;;;;-4.83;69.11;102059.68;1789186;80;20975;-35
2020/12/08 10:42:07;;;;;;;17.92;8.43;;;;;;;-4.67;68.43;102045.20;1789174;80;21022;-35
2020/12/08 10:44:35;;;;;;;25.50;7.37;;;;;;;-4.57;67.93;102044.18;1789231;80;21204;-32
2020/12/08 10:47:03;;;;;;;19.67;8.08;;;;;;;-4.44;67.49;101996.59;1789129;80;20971;-33
2020/12/08 10:49:31;;;;;;;23.60;8.78;;;;;;;-4.33;67.03;102041.17;1781560;80;21003;-36
2020/12/08 10:51:59;;;;;;;22.10;8.75;;;;;;;-4.21;66.58;102036.96;1775605;80;21030;-32
2020/12/08 10:54:27;;;;;;;15.53;7.75;;;;;;;-4.20;66.27;102042.88;1775731;80;20959;-33
2020/12/08 10:56:55;;;;;;;23.40;9.45;;;;;;;-4.09;66.03;102031.84;1775670;80;21213;-33
2020/12/08 10:59:23;;;;;;;14.78;6.72;;;;;;;-4.06;64.90;102030.78;1775538;80;20943;-33
2020/12/08 11:01:57;;;;;;;21.70;9.05;;;;;;;-4.07;64.69;102009.16;1773528;80;21039;-32
2020/12/08 11:04:25;;;;;;;28.55;8.50;;;;;;;-4.09;64.44;102045.77;1775177;80;21014;-35
2020/12/08 11:06:56;;;;;;;19.87;9.95;;;;;;;-4.04;64.95;102039.75;1775008;80;20924;-33
2020/12/08 11:09:24;;;;;;;14.13;7.33;;;;;;;-3.88;64.61;102042.02;1775130;80;21215;-35
2020/12/08 11:11:52;;;;;;;24.67;8.08;;;;;;;-3.79;63.26;102027.05;1775071;80;21113;-33
2020/12/08 11:14:20;;;;;;;18.23;7.55;;;;;;;-3.77;62.66;102014.11;1775140;80;20975;-34
2020/12/08 11:16:48;;;;;;;17.32;7.20;;;;;;;-3.73;61.98;102030.75;1774953;80;20979;-34
2020/12/08 11:19:18;;;;;;;24.50;7.12;;;;;;;-3.71;61.95;102014.01;1772297;80;21023;-33
2020/12/08 11:21:45;;;;;;;14.35;7.50;;;;;;;-3.69;61.81;102016.25;1775101;80;21209;-34
2020/12/08 11:24:15;;;;;;;16.17;7.30;;;;;;;-3.66;62.00;102012.27;1771710;80;21066;-34